sensor_id;sensor_type;location;lat;lon;timestamp;temperature;humidity
39067;DHT22;24821;51.988;6.020;2023-03-11T00:00:19;2.30;99.90
39067;DHT22;24821;51.988;6.020;2023-03-11T00:02:46;2.20;99.90
39067;DHT22;24821;51.988;6.020;2023-03-11T00:05:16;2.10;99.90
39067;DHT22;24821;51.988;6.020;2023-03-11T00:07:42;2.10;99.90
39067;DHT22;24821;51.988;6.020;2023-03-11T00:10:12;2.00;99.90
39067;DHT22;24821;51.988;6.020;2023-03-11T00:12:38;2.00;99.90
39067;DHT22;24821;51.988;6.020;2023-03-11T00:15:04;2.00;99.90
39067;DHT22;24821;51.988;6.020;2023-03-11T00:17:30;2.00;99.90
39067;DHT22;24821;51.988;6.020;2023-03-11T00:19:55;1.90;99.90
39067;DHT22;24821;51.988;6.020;2023-03-11T00:22:21;1.90;99.90
39067;DHT22;24821;51.988;6.020;2023-03-11T00:24:47;1.90;99.90
39067;DHT22;24821;51.988;6.020;2023-03-11T00:27:12;1.80;99.90
39067;DHT22;24821;51.988;6.020;2023-03-11T00:29:38;1.80;99.90
39067;DHT22;24821;51.988;6.020;2023-03-11T00:32:03;1.80;99.90
39067;DHT22;24821;51.988;6.020;2023-03-11T00:34:29;1.80;99.90
39067;DHT22;24821;51.988;6.020;2023-03-11T00:36:55;1.80;99.90
39067;DHT22;24821;51.988;6.020;2023-03-11T00:39:20;1.80;99.90
39067;DHT22;24821;51.988;6.020;2023-03-11T00:41:46;1.70;99.90
39067;DHT22;24821;51.988;6.020;2023-03-11T00:44:11;1.70;99.90
39067;DHT22;24821;51.988;6.020;2023-03-11T00:46:37;1.70;99.90
39067;DHT22;24821;51.988;6.020;2023-03-11T00:49:03;1.70;99.90
39067;DHT22;24821;51.988;6.020;2023-03-11T00:51:28;1.70;99.90
39067;DHT22;24821;51.988;6.020;2023-03-11T00:53:54;1.70;99.90
39067;DHT22;24821;51.988;6.020;2023-03-11T00:56:19;1.70;99.90
39067;DHT22;24821;51.988;6.020;2023-03-11T00:58:45;1.70;99.90
39067;DHT22;24821;51.988;6.020;2023-03-11T01:01:13;1.60;99.90
39067;DHT22;24821;51.988;6.020;2023-03-11T01:03:39;1.70;99.90
39067;DHT22;24821;51.988;6.020;2023-03-11T01:06:05;1.60;99.90
39067;DHT22;24821;51.988;6.020;2023-03-11T01:08:31;1.60;99.90
39067;DHT22;24821;51.988;6.020;2023-03-11T01:10:58;1.60;99.90
39067;DHT22;24821;51.988;6.020;2023-03-11T01:13:24;1.60;99.90
39067;DHT22;24821;51.988;6.020;2023-03-11T01:15:51;1.60;99.90
39067;DHT22;24821;51.988;6.020;2023-03-11T01:18:16;1.60;99.90
39067;DHT22;24821;51.988;6.020;2023-03-11T01:20:42;1.50;99.90
39067;DHT22;24821;51.988;6.020;2023-03-11T01:23:08;1.50;99.90
39067;DHT22;24821;51.988;6.020;2023-03-11T01:25:35;1.60;99.90
39067;DHT22;24821;51.988;6.020;2023-03-11T01:28:01;1.50;99.90
39067;DHT22;24821;51.988;6.020;2023-03-11T01:30:27;1.50;99.90
39067;DHT22;24821;51.988;6.020;2023-03-11T01:32:54;1.50;99.90
39067;DHT22;24821;51.988;6.020;2023-03-11T01:35:23;1.50;99.90
39067;DHT22;24821;51.988;6.020;2023-03-11T01:37:49;1.50;99.90
39067;DHT22;24821;51.988;6.020;2023-03-11T01:40:26;1.40;99.90
39067;DHT22;24821;51.988;6.020;2023-03-11T01:42:53;1.40;99.90
39067;DHT22;24821;51.988;6.020;2023-03-11T01:45:38;1.40;99.90
39067;DHT22;24821;51.988;6.020;2023-03-11T01:48:05;1.40;99.90
39067;DHT22;24821;51.988;6.020;2023-03-11T01:50:34;1.40;99.90
39067;DHT22;24821;51.988;6.020;2023-03-11T01:53:01;1.40;99.90
39067;DHT22;24821;51.988;6.020;2023-03-11T01:55:29;1.30;99.90
39067;DHT22;24821;51.988;6.020;2023-03-11T01:57:55;1.30;99.90
39067;DHT22;24821;51.988;6.020;2023-03-11T02:00:21;1.30;99.90
39067;DHT22;24821;51.988;6.020;2023-03-11T02:02:56;1.30;99.90
39067;DHT22;24821;51.988;6.020;2023-03-11T02:05:23;1.30;99.90
39067;DHT22;24821;51.988;6.020;2023-03-11T02:07:50;1.20;99.90
39067;DHT22;24821;51.988;6.020;2023-03-11T02:10:16;1.20;99.90
39067;DHT22;24821;51.988;6.020;2023-03-11T02:12:42;1.20;99.90
39067;DHT22;24821;51.988;6.020;2023-03-11T02:15:10;1.20;99.90
39067;DHT22;24821;51.988;6.020;2023-03-11T02:17:36;1.20;99.90
39067;DHT22;24821;51.988;6.020;2023-03-11T02:20:17;1.20;99.90
39067;DHT22;24821;51.988;6.020;2023-03-11T02:22:45;1.10;99.90
39067;DHT22;24821;51.988;6.020;2023-03-11T02:28:15;1.20;99.90
39067;DHT22;24821;51.988;6.020;2023-03-11T02:30:43;1.10;99.90
39067;DHT22;24821;51.988;6.020;2023-03-11T02:33:09;1.10;99.90
39067;DHT22;24821;51.988;6.020;2023-03-11T02:35:36;1.10;99.90
39067;DHT22;24821;51.988;6.020;2023-03-11T02:38:02;1.10;99.90
39067;DHT22;24821;51.988;6.020;2023-03-11T02:40:34;1.10;99.90
39067;DHT22;24821;51.988;6.020;2023-03-11T02:43:08;1.10;99.90
39067;DHT22;24821;51.988;6.020;2023-03-11T02:45:35;1.00;99.90
39067;DHT22;24821;51.988;6.020;2023-03-11T02:48:01;1.00;99.90
39067;DHT22;24821;51.988;6.020;2023-03-11T02:50:28;1.00;99.90
39067;DHT22;24821;51.988;6.020;2023-03-11T02:52:54;1.00;99.90
39067;DHT22;24821;51.988;6.020;2023-03-11T02:55:20;1.00;99.90
39067;DHT22;24821;51.988;6.020;2023-03-11T02:57:46;1.00;99.90
39067;DHT22;24821;51.988;6.020;2023-03-11T03:00:15;1.00;99.90
39067;DHT22;24821;51.988;6.020;2023-03-11T03:02:42;1.00;99.90
39067;DHT22;24821;51.988;6.020;2023-03-11T03:05:09;1.10;99.90
39067;DHT22;24821;51.988;6.020;2023-03-11T03:07:35;1.10;99.90
39067;DHT22;24821;51.988;6.020;2023-03-11T03:10:01;1.10;99.90
39067;DHT22;24821;51.988;6.020;2023-03-11T03:12:26;1.10;99.90
39067;DHT22;24821;51.988;6.020;2023-03-11T03:14:52;1.10;99.90
39067;DHT22;24821;51.988;6.020;2023-03-11T03:17:17;1.10;99.90
39067;DHT22;24821;51.988;6.020;2023-03-11T03:19:43;1.10;99.90
39067;DHT22;24821;51.988;6.020;2023-03-11T03:22:08;1.10;99.90
39067;DHT22;24821;51.988;6.020;2023-03-11T03:24:34;1.10;99.90
39067;DHT22;24821;51.988;6.020;2023-03-11T03:26:59;1.10;99.90
39067;DHT22;24821;51.988;6.020;2023-03-11T03:29:25;1.00;99.90
39067;DHT22;24821;51.988;6.020;2023-03-11T03:31:51;1.10;99.90
39067;DHT22;24821;51.988;6.020;2023-03-11T03:34:16;1.10;99.90
39067;DHT22;24821;51.988;6.020;2023-03-11T03:36:42;1.10;99.90
39067;DHT22;24821;51.988;6.020;2023-03-11T03:39:07;1.10;99.90
39067;DHT22;24821;51.988;6.020;2023-03-11T03:41:33;1.10;99.90
39067;DHT22;24821;51.988;6.020;2023-03-11T03:43:58;1.10;99.90
39067;DHT22;24821;51.988;6.020;2023-03-11T03:46:24;1.10;99.90
39067;DHT22;24821;51.988;6.020;2023-03-11T03:48:50;1.10;99.90
39067;DHT22;24821;51.988;6.020;2023-03-11T03:51:15;1.10;99.90
39067;DHT22;24821;51.988;6.020;2023-03-11T03:53:41;1.00;99.90
39067;DHT22;24821;51.988;6.020;2023-03-11T03:56:10;1.10;99.90
39067;DHT22;24821;51.988;6.020;2023-03-11T03:58:36;1.10;99.90
39067;DHT22;24821;51.988;6.020;2023-03-11T04:01:03;1.10;99.90
39067;DHT22;24821;51.988;6.020;2023-03-11T04:03:29;1.10;99.90
39067;DHT22;24821;51.988;6.020;2023-03-11T04:06:23;1.20;99.90
39067;DHT22;24821;51.988;6.020;2023-03-11T04:08:50;1.20;99.90
39067;DHT22;24821;51.988;6.020;2023-03-11T04:11:16;1.20;99.90
39067;DHT22;24821;51.988;6.020;2023-03-11T04:13:42;1.20;99.90
39067;DHT22;24821;51.988;6.020;2023-03-11T04:16:13;1.20;99.90
39067;DHT22;24821;51.988;6.020;2023-03-11T04:18:40;1.20;99.90
39067;DHT22;24821;51.988;6.020;2023-03-11T04:21:06;1.10;99.90
39067;DHT22;24821;51.988;6.020;2023-03-11T04:23:32;1.10;99.90
39067;DHT22;24821;51.988;6.020;2023-03-11T04:25:59;1.00;99.90
39067;DHT22;24821;51.988;6.020;2023-03-11T04:28:25;1.00;99.90
39067;DHT22;24821;51.988;6.020;2023-03-11T04:30:50;0.90;99.90
39067;DHT22;24821;51.988;6.020;2023-03-11T04:33:16;1.00;99.90
39067;DHT22;24821;51.988;6.020;2023-03-11T04:35:41;0.90;99.90
39067;DHT22;24821;51.988;6.020;2023-03-11T04:38:07;0.90;99.90
39067;DHT22;24821;51.988;6.020;2023-03-11T04:40:33;0.80;99.90
39067;DHT22;24821;51.988;6.020;2023-03-11T04:42:58;0.80;99.90
39067;DHT22;24821;51.988;6.020;2023-03-11T04:45:24;0.80;99.90
39067;DHT22;24821;51.988;6.020;2023-03-11T04:47:50;0.80;99.90
39067;DHT22;24821;51.988;6.020;2023-03-11T04:50:16;0.80;99.90
39067;DHT22;24821;51.988;6.020;2023-03-11T04:52:42;0.80;99.90
39067;DHT22;24821;51.988;6.020;2023-03-11T04:55:08;0.80;99.90
39067;DHT22;24821;51.988;6.020;2023-03-11T04:57:33;0.80;99.90
39067;DHT22;24821;51.988;6.020;2023-03-11T04:59:59;0.70;99.90
39067;DHT22;24821;51.988;6.020;2023-03-11T05:02:25;0.70;99.90
39067;DHT22;24821;51.988;6.020;2023-03-11T05:04:50;0.70;99.90
39067;DHT22;24821;51.988;6.020;2023-03-11T05:07:16;0.70;99.90
39067;DHT22;24821;51.988;6.020;2023-03-11T05:09:41;0.70;99.90
39067;DHT22;24821;51.988;6.020;2023-03-11T05:12:10;0.70;99.90
39067;DHT22;24821;51.988;6.020;2023-03-11T05:14:36;0.70;99.90
39067;DHT22;24821;51.988;6.020;2023-03-11T05:17:02;0.70;99.90
39067;DHT22;24821;51.988;6.020;2023-03-11T05:19:27;0.70;99.90
39067;DHT22;24821;51.988;6.020;2023-03-11T05:21:57;0.60;99.90
39067;DHT22;24821;51.988;6.020;2023-03-11T05:24:22;0.60;99.90
39067;DHT22;24821;51.988;6.020;2023-03-11T05:26:50;0.60;99.90
39067;DHT22;24821;51.988;6.020;2023-03-11T05:29:16;0.60;99.90
39067;DHT22;24821;51.988;6.020;2023-03-11T05:31:41;0.70;99.90
39067;DHT22;24821;51.988;6.020;2023-03-11T05:34:07;0.70;99.90
39067;DHT22;24821;51.988;6.020;2023-03-11T05:36:33;0.70;99.90
39067;DHT22;24821;51.988;6.020;2023-03-11T05:38:58;0.70;99.90
39067;DHT22;24821;51.988;6.020;2023-03-11T05:41:24;0.70;99.90
39067;DHT22;24821;51.988;6.020;2023-03-11T05:43:49;0.60;99.90
39067;DHT22;24821;51.988;6.020;2023-03-11T05:46:15;0.60;99.90
39067;DHT22;24821;51.988;6.020;2023-03-11T05:48:41;0.60;99.90
39067;DHT22;24821;51.988;6.020;2023-03-11T05:51:08;0.60;99.90
39067;DHT22;24821;51.988;6.020;2023-03-11T05:53:33;0.50;99.90
39067;DHT22;24821;51.988;6.020;2023-03-11T05:55:59;0.50;99.90
39067;DHT22;24821;51.988;6.020;2023-03-11T05:58:27;0.50;99.90
39067;DHT22;24821;51.988;6.020;2023-03-11T06:00:52;0.50;99.90
39067;DHT22;24821;51.988;6.020;2023-03-11T06:03:18;0.50;99.90
39067;DHT22;24821;51.988;6.020;2023-03-11T06:05:45;0.50;99.90
39067;DHT22;24821;51.988;6.020;2023-03-11T06:08:10;0.40;99.90
39067;DHT22;24821;51.988;6.020;2023-03-11T06:10:36;0.40;99.90
39067;DHT22;24821;51.988;6.020;2023-03-11T06:13:01;0.50;99.90
39067;DHT22;24821;51.988;6.020;2023-03-11T06:15:27;0.40;99.90
39067;DHT22;24821;51.988;6.020;2023-03-11T06:17:53;0.40;99.90
39067;DHT22;24821;51.988;6.020;2023-03-11T06:20:18;0.40;99.90
39067;DHT22;24821;51.988;6.020;2023-03-11T06:22:46;0.40;99.90
39067;DHT22;24821;51.988;6.020;2023-03-11T06:25:12;0.40;99.90
39067;DHT22;24821;51.988;6.020;2023-03-11T06:27:38;0.40;99.90
39067;DHT22;24821;51.988;6.020;2023-03-11T06:30:03;0.40;99.90
39067;DHT22;24821;51.988;6.020;2023-03-11T06:32:29;0.40;99.90
39067;DHT22;24821;51.988;6.020;2023-03-11T06:34:55;0.40;99.90
39067;DHT22;24821;51.988;6.020;2023-03-11T06:37:21;0.40;99.90
39067;DHT22;24821;51.988;6.020;2023-03-11T06:39:51;0.40;99.90
39067;DHT22;24821;51.988;6.020;2023-03-11T06:42:17;0.40;99.90
39067;DHT22;24821;51.988;6.020;2023-03-11T06:44:43;0.40;99.90
39067;DHT22;24821;51.988;6.020;2023-03-11T06:47:10;0.50;99.90
39067;DHT22;24821;51.988;6.020;2023-03-11T06:49:37;0.50;99.90
39067;DHT22;24821;51.988;6.020;2023-03-11T06:52:05;0.50;99.90
39067;DHT22;24821;51.988;6.020;2023-03-11T06:54:31;0.50;99.90
39067;DHT22;24821;51.988;6.020;2023-03-11T06:56:56;0.50;99.90
39067;DHT22;24821;51.988;6.020;2023-03-11T06:59:22;0.60;99.90
39067;DHT22;24821;51.988;6.020;2023-03-11T07:01:47;0.60;99.90
39067;DHT22;24821;51.988;6.020;2023-03-11T07:04:13;0.60;99.90
39067;DHT22;24821;51.988;6.020;2023-03-11T07:06:40;0.60;99.90
39067;DHT22;24821;51.988;6.020;2023-03-11T07:09:06;0.60;99.90
39067;DHT22;24821;51.988;6.020;2023-03-11T07:11:32;0.70;99.90
39067;DHT22;24821;51.988;6.020;2023-03-11T07:13:57;0.90;99.90
39067;DHT22;24821;51.988;6.020;2023-03-11T07:16:25;1.00;99.90
39067;DHT22;24821;51.988;6.020;2023-03-11T07:18:53;1.30;99.90
39067;DHT22;24821;51.988;6.020;2023-03-11T07:21:21;1.50;99.90
39067;DHT22;24821;51.988;6.020;2023-03-11T07:23:51;1.60;99.90
39067;DHT22;24821;51.988;6.020;2023-03-11T07:26:17;1.70;99.90
39067;DHT22;24821;51.988;6.020;2023-03-11T07:28:43;1.80;99.90
39067;DHT22;24821;51.988;6.020;2023-03-11T07:31:11;1.90;99.90
39067;DHT22;24821;51.988;6.020;2023-03-11T07:33:37;2.00;99.90
39067;DHT22;24821;51.988;6.020;2023-03-11T07:36:14;2.20;99.90
39067;DHT22;24821;51.988;6.020;2023-03-11T07:38:40;2.40;99.90
39067;DHT22;24821;51.988;6.020;2023-03-11T07:41:07;2.50;99.90
39067;DHT22;24821;51.988;6.020;2023-03-11T07:43:33;2.70;99.90
39067;DHT22;24821;51.988;6.020;2023-03-11T07:46:08;2.90;99.90
39067;DHT22;24821;51.988;6.020;2023-03-11T07:48:35;3.10;99.90
39067;DHT22;24821;51.988;6.020;2023-03-11T07:51:11;3.20;99.90
39067;DHT22;24821;51.988;6.020;2023-03-11T07:53:37;3.40;99.90
39067;DHT22;24821;51.988;6.020;2023-03-11T07:56:05;3.40;99.90
39067;DHT22;24821;51.988;6.020;2023-03-11T07:58:31;3.60;99.90
39067;DHT22;24821;51.988;6.020;2023-03-11T08:01:03;3.80;99.90
39067;DHT22;24821;51.988;6.020;2023-03-11T08:03:29;4.10;99.90
39067;DHT22;24821;51.988;6.020;2023-03-11T08:05:54;4.40;99.90
39067;DHT22;24821;51.988;6.020;2023-03-11T08:08:20;4.70;99.90
39067;DHT22;24821;51.988;6.020;2023-03-11T08:10:45;4.90;99.90
39067;DHT22;24821;51.988;6.020;2023-03-11T08:13:11;5.20;99.90
39067;DHT22;24821;51.988;6.020;2023-03-11T08:15:36;5.50;99.90
39067;DHT22;24821;51.988;6.020;2023-03-11T08:18:02;5.80;99.90
39067;DHT22;24821;51.988;6.020;2023-03-11T08:20:29;6.00;99.90
39067;DHT22;24821;51.988;6.020;2023-03-11T08:22:54;6.20;99.90
39067;DHT22;24821;51.988;6.020;2023-03-11T08:25:20;6.30;99.90
39067;DHT22;24821;51.988;6.020;2023-03-11T08:27:45;6.40;99.90
39067;DHT22;24821;51.988;6.020;2023-03-11T08:30:12;6.30;99.90
39067;DHT22;24821;51.988;6.020;2023-03-11T08:32:38;6.30;99.90
39067;DHT22;24821;51.988;6.020;2023-03-11T08:35:04;6.10;99.90
39067;DHT22;24821;51.988;6.020;2023-03-11T08:37:29;6.00;99.90
39067;DHT22;24821;51.988;6.020;2023-03-11T08:39:56;5.80;99.90
39067;DHT22;24821;51.988;6.020;2023-03-11T08:42:21;5.70;99.90
39067;DHT22;24821;51.988;6.020;2023-03-11T08:44:47;5.60;99.90
39067;DHT22;24821;51.988;6.020;2023-03-11T08:47:12;5.40;99.90
39067;DHT22;24821;51.988;6.020;2023-03-11T08:49:38;5.30;99.90
39067;DHT22;24821;51.988;6.020;2023-03-11T08:52:06;5.30;99.90
39067;DHT22;24821;51.988;6.020;2023-03-11T08:54:32;5.20;99.90
39067;DHT22;24821;51.988;6.020;2023-03-11T08:56:58;5.10;99.90
39067;DHT22;24821;51.988;6.020;2023-03-11T08:59:28;5.10;99.90
39067;DHT22;24821;51.988;6.020;2023-03-11T09:01:53;5.10;99.90
39067;DHT22;24821;51.988;6.020;2023-03-11T09:04:19;5.10;99.90
39067;DHT22;24821;51.988;6.020;2023-03-11T09:06:44;5.10;99.90
39067;DHT22;24821;51.988;6.020;2023-03-11T09:09:11;5.10;99.90
39067;DHT22;24821;51.988;6.020;2023-03-11T09:11:37;5.10;99.90
39067;DHT22;24821;51.988;6.020;2023-03-11T09:14:04;5.10;99.90
39067;DHT22;24821;51.988;6.020;2023-03-11T09:16:29;5.10;99.90
39067;DHT22;24821;51.988;6.020;2023-03-11T09:18:55;5.10;99.90
39067;DHT22;24821;51.988;6.020;2023-03-11T09:21:21;5.20;99.90
39067;DHT22;24821;51.988;6.020;2023-03-11T09:23:47;5.20;99.90
39067;DHT22;24821;51.988;6.020;2023-03-11T09:26:13;5.20;99.90
39067;DHT22;24821;51.988;6.020;2023-03-11T09:28:40;5.20;99.90
39067;DHT22;24821;51.988;6.020;2023-03-11T09:31:06;5.30;99.90
39067;DHT22;24821;51.988;6.020;2023-03-11T09:33:39;5.30;99.90
39067;DHT22;24821;51.988;6.020;2023-03-11T09:36:06;5.30;99.90
39067;DHT22;24821;51.988;6.020;2023-03-11T09:38:32;5.40;99.90
39067;DHT22;24821;51.988;6.020;2023-03-11T09:52:10;5.30;99.90
39067;DHT22;24821;51.988;6.020;2023-03-11T09:54:46;5.30;99.90
39067;DHT22;24821;51.988;6.020;2023-03-11T09:57:20;5.30;99.90
39067;DHT22;24821;51.988;6.020;2023-03-11T09:59:47;5.30;99.90
39067;DHT22;24821;51.988;6.020;2023-03-11T10:02:21;5.40;99.90
39067;DHT22;24821;51.988;6.020;2023-03-11T10:04:55;5.50;99.90
39067;DHT22;24821;51.988;6.020;2023-03-11T10:07:26;5.60;99.90
39067;DHT22;24821;51.988;6.020;2023-03-11T10:09:55;5.70;99.90
39067;DHT22;24821;51.988;6.020;2023-03-11T10:12:31;5.80;99.90
39067;DHT22;24821;51.988;6.020;2023-03-11T10:15:15;5.80;99.90
39067;DHT22;24821;51.988;6.020;2023-03-11T10:20:41;5.90;99.90
39067;DHT22;24821;51.988;6.020;2023-03-11T10:23:23;5.90;99.90
39067;DHT22;24821;51.988;6.020;2023-03-11T10:25:55;5.90;99.90
39067;DHT22;24821;51.988;6.020;2023-03-11T10:28:51;5.90;99.90
39067;DHT22;24821;51.988;6.020;2023-03-11T10:33:49;6.00;99.90
39067;DHT22;24821;51.988;6.020;2023-03-11T10:36:20;6.00;99.90
39067;DHT22;24821;51.988;6.020;2023-03-11T10:38:50;6.10;99.90
39067;DHT22;24821;51.988;6.020;2023-03-11T10:44:22;6.30;99.90
39067;DHT22;24821;51.988;6.020;2023-03-11T10:46:49;6.40;99.90
39067;DHT22;24821;51.988;6.020;2023-03-11T10:49:16;6.40;99.60
39067;DHT22;24821;51.988;6.020;2023-03-11T10:51:51;6.50;99.50
39067;DHT22;24821;51.988;6.020;2023-03-11T10:56:54;6.60;99.90
39067;DHT22;24821;51.988;6.020;2023-03-11T10:59:32;6.70;99.90
39067;DHT22;24821;51.988;6.020;2023-03-11T11:02:01;6.80;99.50
39067;DHT22;24821;51.988;6.020;2023-03-11T11:04:36;6.90;99.60
39067;DHT22;24821;51.988;6.020;2023-03-11T11:12:36;6.90;98.70
39067;DHT22;24821;51.988;6.020;2023-03-11T11:15:01;6.80;98.10
39067;DHT22;24821;51.988;6.020;2023-03-11T11:17:29;6.80;98.50
39067;DHT22;24821;51.988;6.020;2023-03-11T11:20:00;6.90;98.70
39067;DHT22;24821;51.988;6.020;2023-03-11T11:22:37;6.90;98.70
39067;DHT22;24821;51.988;6.020;2023-03-11T11:25:23;7.00;98.20
39067;DHT22;24821;51.988;6.020;2023-03-11T11:28:00;7.10;98.10
39067;DHT22;24821;51.988;6.020;2023-03-11T11:30:27;7.10;98.40
39067;DHT22;24821;51.988;6.020;2023-03-11T11:32:53;7.20;98.50
39067;DHT22;24821;51.988;6.020;2023-03-11T11:35:22;7.20;98.00
39067;DHT22;24821;51.988;6.020;2023-03-11T11:37:53;7.10;97.50
39067;DHT22;24821;51.988;6.020;2023-03-11T11:40:24;7.10;97.80
39067;DHT22;24821;51.988;6.020;2023-03-11T11:42:56;7.10;97.70
39067;DHT22;24821;51.988;6.020;2023-03-11T11:45:41;7.10;97.60
39067;DHT22;24821;51.988;6.020;2023-03-11T11:51:24;7.10;97.60
39067;DHT22;24821;51.988;6.020;2023-03-11T11:56:38;7.10;97.70
39067;DHT22;24821;51.988;6.020;2023-03-11T11:59:18;7.10;97.80
39067;DHT22;24821;51.988;6.020;2023-03-11T12:10:15;7.30;97.90
39067;DHT22;24821;51.988;6.020;2023-03-11T12:18:05;7.20;96.80
39067;DHT22;24821;51.988;6.020;2023-03-11T12:20:40;7.20;96.90
39067;DHT22;24821;51.988;6.020;2023-03-11T12:23:47;7.30;97.20
39067;DHT22;24821;51.988;6.020;2023-03-11T12:26:20;7.30;97.30
39067;DHT22;24821;51.988;6.020;2023-03-11T12:29:11;7.20;97.30
39067;DHT22;24821;51.988;6.020;2023-03-11T12:31:42;7.20;97.70
39067;DHT22;24821;51.988;6.020;2023-03-11T12:34:13;7.20;97.70
39067;DHT22;24821;51.988;6.020;2023-03-11T12:36:43;7.20;97.20
39067;DHT22;24821;51.988;6.020;2023-03-11T12:39:26;7.30;96.60
39067;DHT22;24821;51.988;6.020;2023-03-11T12:44:45;7.40;95.60
39067;DHT22;24821;51.988;6.020;2023-03-11T12:49:43;7.40;95.40
39067;DHT22;24821;51.988;6.020;2023-03-11T12:54:40;7.40;94.80
39067;DHT22;24821;51.988;6.020;2023-03-11T13:05:59;7.30;94.60
39067;DHT22;24821;51.988;6.020;2023-03-11T13:14:17;7.40;94.00
39067;DHT22;24821;51.988;6.020;2023-03-11T13:16:45;7.40;94.50
39067;DHT22;24821;51.988;6.020;2023-03-11T13:21:57;7.40;94.00
39067;DHT22;24821;51.988;6.020;2023-03-11T13:40:38;7.60;92.50
39067;DHT22;24821;51.988;6.020;2023-03-11T13:43:24;7.60;91.70
39067;DHT22;24821;51.988;6.020;2023-03-11T13:50:57;7.60;91.90
39067;DHT22;24821;51.988;6.020;2023-03-11T13:53:37;7.60;92.40
39067;DHT22;24821;51.988;6.020;2023-03-11T13:56:04;7.70;91.90
39067;DHT22;24821;51.988;6.020;2023-03-11T13:58:30;7.60;92.20
39067;DHT22;24821;51.988;6.020;2023-03-11T14:00:57;7.70;91.80
39067;DHT22;24821;51.988;6.020;2023-03-11T14:03:25;7.70;92.20
39067;DHT22;24821;51.988;6.020;2023-03-11T14:06:05;7.70;93.20
39067;DHT22;24821;51.988;6.020;2023-03-11T14:08:34;7.80;93.70
39067;DHT22;24821;51.988;6.020;2023-03-11T14:13:48;7.70;93.70
39067;DHT22;24821;51.988;6.020;2023-03-11T14:16:20;7.70;93.40
39067;DHT22;24821;51.988;6.020;2023-03-11T14:19:00;7.70;92.00
39067;DHT22;24821;51.988;6.020;2023-03-11T14:21:26;7.60;91.70
39067;DHT22;24821;51.988;6.020;2023-03-11T14:23:54;7.50;91.90
39067;DHT22;24821;51.988;6.020;2023-03-11T14:26:28;7.50;91.80
39067;DHT22;24821;51.988;6.020;2023-03-11T14:28:59;7.50;91.10
39067;DHT22;24821;51.988;6.020;2023-03-11T14:31:34;7.40;90.90
39067;DHT22;24821;51.988;6.020;2023-03-11T14:36:47;7.20;91.90
39067;DHT22;24821;51.988;6.020;2023-03-11T14:44:45;7.20;90.50
39067;DHT22;24821;51.988;6.020;2023-03-11T14:50:22;7.30;90.30
39067;DHT22;24821;51.988;6.020;2023-03-11T14:52:54;7.30;90.80
39067;DHT22;24821;51.988;6.020;2023-03-11T14:55:26;7.20;91.10
39067;DHT22;24821;51.988;6.020;2023-03-11T15:00:27;7.20;91.70
39067;DHT22;24821;51.988;6.020;2023-03-11T15:03:26;7.20;91.00
39067;DHT22;24821;51.988;6.020;2023-03-11T15:08:28;7.10;91.30
39067;DHT22;24821;51.988;6.020;2023-03-11T15:11:07;7.10;91.30
39067;DHT22;24821;51.988;6.020;2023-03-11T15:13:45;7.10;91.80
39067;DHT22;24821;51.988;6.020;2023-03-11T15:18:46;7.20;92.60
39067;DHT22;24821;51.988;6.020;2023-03-11T15:21:17;7.10;92.10
39067;DHT22;24821;51.988;6.020;2023-03-11T15:24:03;7.20;91.80
39067;DHT22;24821;51.988;6.020;2023-03-11T15:26:32;7.20;92.00
39067;DHT22;24821;51.988;6.020;2023-03-11T15:29:15;7.30;92.60
39067;DHT22;24821;51.988;6.020;2023-03-11T15:31:44;7.30;92.70
39067;DHT22;24821;51.988;6.020;2023-03-11T15:36:57;7.30;92.00
39067;DHT22;24821;51.988;6.020;2023-03-11T15:44:34;7.30;92.00
39067;DHT22;24821;51.988;6.020;2023-03-11T15:47:01;7.30;91.60
39067;DHT22;24821;51.988;6.020;2023-03-11T15:49:28;7.30;91.40
39067;DHT22;24821;51.988;6.020;2023-03-11T15:51:58;7.20;91.40
39067;DHT22;24821;51.988;6.020;2023-03-11T15:54:24;7.20;91.80
39067;DHT22;24821;51.988;6.020;2023-03-11T15:56:49;7.10;92.00
39067;DHT22;24821;51.988;6.020;2023-03-11T15:59:16;7.10;92.20
39067;DHT22;24821;51.988;6.020;2023-03-11T16:01:43;7.10;92.30
39067;DHT22;24821;51.988;6.020;2023-03-11T16:04:14;7.00;92.40
39067;DHT22;24821;51.988;6.020;2023-03-11T16:06:40;7.00;92.80
39067;DHT22;24821;51.988;6.020;2023-03-11T16:09:06;6.90;93.10
39067;DHT22;24821;51.988;6.020;2023-03-11T16:11:33;6.90;93.50
39067;DHT22;24821;51.988;6.020;2023-03-11T16:13:58;6.80;93.50
39067;DHT22;24821;51.988;6.020;2023-03-11T16:16:24;6.80;93.60
39067;DHT22;24821;51.988;6.020;2023-03-11T16:18:50;6.80;93.30
39067;DHT22;24821;51.988;6.020;2023-03-11T16:21:20;6.80;93.20
39067;DHT22;24821;51.988;6.020;2023-03-11T16:23:46;6.80;92.40
39067;DHT22;24821;51.988;6.020;2023-03-11T16:26:15;6.80;92.50
39067;DHT22;24821;51.988;6.020;2023-03-11T16:28:41;6.80;92.70
39067;DHT22;24821;51.988;6.020;2023-03-11T16:31:07;6.80;92.90
39067;DHT22;24821;51.988;6.020;2023-03-11T16:33:34;6.70;92.80
39067;DHT22;24821;51.988;6.020;2023-03-11T16:36:00;6.70;92.70
39067;DHT22;24821;51.988;6.020;2023-03-11T16:38:25;6.60;92.10
39067;DHT22;24821;51.988;6.020;2023-03-11T16:40:59;6.60;92.30
39067;DHT22;24821;51.988;6.020;2023-03-11T16:43:26;6.60;92.40
39067;DHT22;24821;51.988;6.020;2023-03-11T16:45:52;6.50;92.60
39067;DHT22;24821;51.988;6.020;2023-03-11T16:48:20;6.50;92.20
39067;DHT22;24821;51.988;6.020;2023-03-11T16:50:45;6.40;91.90
39067;DHT22;24821;51.988;6.020;2023-03-11T16:53:11;6.40;91.70
39067;DHT22;24821;51.988;6.020;2023-03-11T16:55:38;6.30;92.10
39067;DHT22;24821;51.988;6.020;2023-03-11T16:58:03;6.30;92.50
39067;DHT22;24821;51.988;6.020;2023-03-11T17:00:29;6.20;93.00
39067;DHT22;24821;51.988;6.020;2023-03-11T17:02:56;6.10;93.10
39067;DHT22;24821;51.988;6.020;2023-03-11T17:05:21;6.10;93.40
39067;DHT22;24821;51.988;6.020;2023-03-11T17:07:47;6.00;93.60
39067;DHT22;24821;51.988;6.020;2023-03-11T17:10:13;5.90;93.70
39067;DHT22;24821;51.988;6.020;2023-03-11T17:12:38;5.80;93.80
39067;DHT22;24821;51.988;6.020;2023-03-11T17:15:05;5.70;94.10
39067;DHT22;24821;51.988;6.020;2023-03-11T17:17:31;5.70;94.30
39067;DHT22;24821;51.988;6.020;2023-03-11T17:19:56;5.60;94.10
39067;DHT22;24821;51.988;6.020;2023-03-11T17:22:22;5.60;94.40
39067;DHT22;24821;51.988;6.020;2023-03-11T17:24:47;5.50;94.60
39067;DHT22;24821;51.988;6.020;2023-03-11T17:27:13;5.40;94.70
39067;DHT22;24821;51.988;6.020;2023-03-11T17:29:39;5.40;95.00
39067;DHT22;24821;51.988;6.020;2023-03-11T17:32:05;5.30;94.90
39067;DHT22;24821;51.988;6.020;2023-03-11T17:34:31;5.20;95.20
39067;DHT22;24821;51.988;6.020;2023-03-11T17:36:56;5.20;95.50
39067;DHT22;24821;51.988;6.020;2023-03-11T17:39:22;5.10;95.70
39067;DHT22;24821;51.988;6.020;2023-03-11T17:41:48;5.10;95.90
39067;DHT22;24821;51.988;6.020;2023-03-11T17:44:13;5.00;96.10
39067;DHT22;24821;51.988;6.020;2023-03-11T17:46:39;4.90;96.30
39067;DHT22;24821;51.988;6.020;2023-03-11T17:49:06;4.90;96.50
39067;DHT22;24821;51.988;6.020;2023-03-11T17:51:33;4.80;96.50
39067;DHT22;24821;51.988;6.020;2023-03-11T17:53:58;4.80;96.70
39067;DHT22;24821;51.988;6.020;2023-03-11T17:56:25;4.70;97.00